Time;durP1;ratioP1;P1;durP2;ratioP2;P2;SDS_P1;SDS_P2;PMS_P1;PMS_P2;Temp;Humidity;BMP_temperature;BMP_pressure;BME280_temperature;BME280_humidity;BME280_pressure;Samples;Min_cycle;Max_cycle;Signal;HPM_P1;HPM_P2
2022/07/20 00:01:37;;;;;;;10.75;7.00;;;23.40;99.90;;;;;;4947909;28;20065;-87
2022/07/20 00:04:03;;;;;;;8.13;4.47;;;23.40;99.90;;;;;;4950410;28;20057;-84
2022/07/20 00:06:29;;;;;;;6.85;4.55;;;23.30;99.90;;;;;;4969905;28;20050;-87
2022/07/20 00:11:39;;;;;;;5.32;3.47;;;23.30;99.90;;;;;;4960424;28;20081;-88
2022/07/20 00:14:06;;;;;;;5.15;3.10;;;23.20;99.90;;;;;;4941249;28;20124;-87
2022/07/20 00:16:34;;;;;;;7.43;3.13;;;23.20;99.90;;;;;;4946469;28;20773;-85
2022/07/20 00:19:00;;;;;;;4.43;3.22;;;23.10;99.90;;;;;;4946044;28;20110;-87
2022/07/20 00:21:26;;;;;;;3.42;2.40;;;23.00;99.90;;;;;;4943064;28;20161;-86
2022/07/20 00:23:51;;;;;;;7.93;3.45;;;23.00;99.90;;;;;;4941284;28;20113;-88
2022/07/20 00:26:17;;;;;;;4.45;3.00;;;22.90;99.90;;;;;;4943446;28;21705;-88
2022/07/20 00:28:43;;;;;;;7.38;2.95;;;22.90;99.90;;;;;;4967926;28;20117;-84
2022/07/20 00:31:09;;;;;;;4.78;2.63;;;22.90;99.90;;;;;;4967322;28;20153;-88
2022/07/20 00:33:35;;;;;;;6.45;3.13;;;22.80;99.90;;;;;;4952066;28;20042;-87
2022/07/20 00:36:01;;;;;;;4.75;3.05;;;22.80;99.90;;;;;;4953358;28;20057;-87
2022/07/20 00:38:27;;;;;;;4.63;2.90;;;22.70;99.90;;;;;;4953297;28;20655;-86
2022/07/20 00:40:53;;;;;;;5.70;2.83;;;22.60;99.90;;;;;;4951323;28;20046;-88
2022/07/20 00:43:19;;;;;;;4.95;2.90;;;22.60;99.90;;;;;;4936946;28;20097;-89
2022/07/20 00:45:46;;;;;;;5.65;2.85;;;22.50;99.90;;;;;;4966919;28;20409;-88
2022/07/20 00:48:11;;;;;;;3.58;2.90;;;22.50;99.90;;;;;;4952317;28;20058;-86
2022/07/20 00:50:38;;;;;;;6.03;3.17;;;22.40;99.90;;;;;;4948418;28;20393;-85
2022/07/20 00:53:04;;;;;;;5.30;3.15;;;22.40;99.90;;;;;;4966241;28;20058;-85
2022/07/20 00:55:30;;;;;;;4.10;3.30;;;22.40;99.90;;;;;;4944660;28;20054;-85
2022/07/20 00:57:56;;;;;;;5.95;3.13;;;22.30;99.90;;;;;;4943545;28;20481;-86
2022/07/20 01:00:22;;;;;;;6.40;3.17;;;22.30;99.90;;;;;;4939913;28;20057;-84
2022/07/20 01:02:48;;;;;;;4.25;3.15;;;22.20;99.90;;;;;;4945145;28;20049;-87
2022/07/20 01:05:14;;;;;;;5.15;2.97;;;22.10;99.90;;;;;;4937019;28;20547;-87
2022/07/20 01:07:49;;;;;;;8.30;3.13;;;22.10;99.90;;;;;;4961360;28;20050;-86
2022/07/20 01:10:16;;;;;;;;;;;22.10;99.90;;;;;;4967779;28;20061;-87
2022/07/20 01:12:48;;;;;;;5.45;2.67;;;22.00;99.90;;;;;;4937994;28;20396;-85
2022/07/20 01:15:15;;;;;;;4.47;2.97;;;21.90;99.90;;;;;;4965289;28;20046;-87
2022/07/20 01:17:41;;;;;;;4.18;3.20;;;21.90;99.90;;;;;;4942662;28;20105;-85
2022/07/20 01:20:09;;;;;;;5.88;3.30;;;21.90;99.90;;;;;;4959312;28;20045;-87
2022/07/20 01:22:35;;;;;;;5.20;3.10;;;21.80;99.90;;;;;;4957742;28;20046;-86
2022/07/20 01:25:01;;;;;;;5.63;2.90;;;21.80;99.90;;;;;;4965243;28;20053;-87
2022/07/20 01:27:26;;;;;;;4.07;3.20;;;21.80;99.90;;;;;;4935187;28;20047;-88
2022/07/20 01:29:52;;;;;;;6.97;3.30;;;21.80;99.90;;;;;;4957024;28;20050;-87
2022/07/20 01:32:18;;;;;;;4.28;2.95;;;21.80;99.90;;;;;;4945946;28;20046;-86
2022/07/20 01:34:44;;;;;;;5.65;3.33;;;21.70;99.90;;;;;;4948419;28;20680;-86
2022/07/20 01:37:10;;;;;;;3.65;2.90;;;21.70;99.90;;;;;;4935471;28;20054;-87
2022/07/20 01:39:38;;;;;;;4.90;3.13;;;21.60;99.90;;;;;;4949135;28;20555;-86
2022/07/20 01:42:04;;;;;;;3.97;3.00;;;21.50;99.90;;;;;;4949179;28;20116;-86
2022/07/20 01:44:29;;;;;;;4.85;3.33;;;21.50;99.90;;;;;;4965957;28;20563;-87
2022/07/20 01:46:55;;;;;;;6.25;3.33;;;21.50;99.90;;;;;;4972557;28;20043;-85
2022/07/20 01:49:23;;;;;;;6.05;3.25;;;21.40;99.90;;;;;;4942207;28;20065;-86
2022/07/20 01:51:49;;;;;;;7.65;3.40;;;21.40;99.90;;;;;;4958606;28;20525;-85
2022/07/20 01:54:15;;;;;;;6.32;3.13;;;21.40;99.90;;;;;;4947586;28;20097;-87
2022/07/20 01:56:42;;;;;;;6.82;4.10;;;21.40;99.90;;;;;;4947390;28;20050;-85
2022/07/20 01:59:08;;;;;;;7.38;3.60;;;21.30;99.90;;;;;;4971872;28;20081;-85
2022/07/20 02:01:37;;;;;;;5.43;3.03;;;21.30;99.90;;;;;;4951284;28;20401;-87
2022/07/20 02:04:04;;;;;;;4.20;3.28;;;21.40;99.90;;;;;;4965625;28;20058;-87
2022/07/20 02:06:30;;;;;;;6.07;3.17;;;21.20;99.90;;;;;;4957214;28;20042;-86
2022/07/20 02:08:56;;;;;;;4.57;3.17;;;21.20;99.90;;;;;;4971069;28;20049;-86
2022/07/20 02:11:22;;;;;;;5.70;3.38;;;21.20;99.90;;;;;;4945571;28;20394;-87
2022/07/20 02:13:47;;;;;;;5.30;3.28;;;21.10;99.90;;;;;;4961656;28;20047;-87
2022/07/20 02:16:16;;;;;;;3.42;3.13;;;21.10;99.90;;;;;;4952509;28;20148;-86
2022/07/20 02:18:55;;;;;;;5.18;3.00;;;21.10;99.90;;;;;;4954220;28;20050;-85
2022/07/20 02:21:22;;;;;;;5.53;3.40;;;21.10;99.90;;;;;;4969165;28;20058;-87
2022/07/20 02:23:49;;;;;;;5.47;3.33;;;21.00;99.90;;;;;;4953706;28;20054;-86
2022/07/20 02:26:14;;;;;;;6.25;3.40;;;21.00;99.90;;;;;;4948096;28;20108;-86
2022/07/20 02:28:40;;;;;;;4.75;2.97;;;21.00;99.90;;;;;;4951746;28;20059;-85
2022/07/20 02:31:07;;;;;;;4.20;3.20;;;21.00;99.90;;;;;;4936843;28;20061;-86
2022/07/20 02:33:33;;;;;;;6.05;2.88;;;20.90;99.90;;;;;;4968497;28;20569;-87
2022/07/20 02:35:59;;;;;;;4.72;3.22;;;20.40;99.90;;;;;;4927150;28;20074;-87
2022/07/20 02:38:25;;;;;;;4.45;3.10;;;20.80;99.90;;;;;;4954283;28;20081;-87
2022/07/20 02:40:51;;;;;;;6.03;3.17;;;20.80;99.90;;;;;;4953039;28;20078;-87
2022/07/20 02:43:16;;;;;;;3.80;2.92;;;20.80;99.90;;;;;;4952321;28;20053;-86
2022/07/20 02:45:42;;;;;;;5.70;3.17;;;20.70;99.90;;;;;;4968489;28;20042;-88
2022/07/20 02:48:08;;;;;;;5.10;3.13;;;21.20;99.90;;;;;;4949864;28;20064;-88
2022/07/20 02:50:38;;;;;;;5.18;3.13;;;20.70;99.90;;;;;;4959146;28;20050;-83
2022/07/20 02:53:05;;;;;;;4.88;3.00;;;20.50;99.90;;;;;;4979418;28;20065;-85
2022/07/20 02:55:31;;;;;;;4.60;2.83;;;20.60;99.90;;;;;;4951308;28;20327;-86
2022/07/20 02:58:09;;;;;;;4.28;3.00;;;20.60;99.90;;;;;;4953564;28;20049;-92
2022/07/20 03:00:35;;;;;;;4.63;3.22;;;20.60;99.90;;;;;;4974627;28;20047;-91
2022/07/20 03:03:04;;;;;;;7.00;3.15;;;20.60;99.90;;;;;;4954615;28;20117;-91
2022/07/20 03:05:33;;;;;;;6.43;3.33;;;20.60;99.90;;;;;;4953269;28;20665;-90
2022/07/20 03:07:59;;;;;;;4.88;3.10;;;20.50;99.90;;;;;;4971158;28;20042;-91
2022/07/20 03:10:25;;;;;;;6.85;3.80;;;20.50;99.90;;;;;;4954712;28;20076;-92
2022/07/20 03:12:51;;;;;;;4.75;3.22;;;20.40;99.90;;;;;;4976383;28;20092;-90
2022/07/20 03:15:17;;;;;;;6.22;3.35;;;20.40;99.90;;;;;;4977042;28;20058;-90
2022/07/20 03:17:48;;;;;;;4.88;3.28;;;20.40;99.90;;;;;;4974009;28;20042;-89
2022/07/20 03:20:20;;;;;;;5.07;3.40;;;20.40;99.90;;;;;;4957819;28;20089;-87
2022/07/20 03:22:48;;;;;;;4.80;3.47;;;20.40;99.90;;;;;;4977837;28;20053;-92
2022/07/20 03:25:14;;;;;;;4.30;2.97;;;20.40;99.90;;;;;;4978586;28;20050;-91
2022/07/20 03:27:40;;;;;;;5.13;3.60;;;19.90;99.90;;;;;;4977289;28;20394;-90
2022/07/20 03:30:07;;;;;;;5.90;3.50;;;20.40;99.90;;;;;;4974215;28;20046;-93
2022/07/20 03:32:34;;;;;;;4.95;2.90;;;20.50;99.90;;;;;;4959403;28;20048;-90
2022/07/20 03:35:00;;;;;;;6.50;3.22;;;20.30;99.90;;;;;;4972374;28;20046;-92
2022/07/20 03:37:26;;;;;;;5.50;3.13;;;20.40;99.90;;;;;;4950873;28;20061;-89
2022/07/20 03:40:02;;;;;;;4.45;2.88;;;20.40;99.90;;;;;;4956762;28;20046;-92
2022/07/20 03:42:28;;;;;;;5.78;3.72;;;20.30;99.90;;;;;;4964532;28;20042;-91
2022/07/20 03:44:56;;;;;;;7.30;3.58;;;20.30;99.90;;;;;;4952099;28;20049;-90
2022/07/20 03:47:27;;;;;;;6.75;3.60;;;21.00;99.90;;;;;;4940776;28;20054;-94
2022/07/20 03:49:56;;;;;;;5.95;3.22;;;20.40;99.90;;;;;;4973094;28;20070;-90
2022/07/20 03:52:25;;;;;;;5.68;3.97;;;20.30;99.90;;;;;;4974271;28;20493;-93
2022/07/20 03:54:51;;;;;;;6.53;3.45;;;20.30;99.90;;;;;;4963892;28;20058;-91
2022/07/20 03:57:27;;;;;;;6.07;3.50;;;19.80;99.90;;;;;;4960516;28;20068;-91
2022/07/20 03:59:53;;;;;;;7.07;3.40;;;20.30;99.90;;;;;;4961902;28;20043;-92
2022/07/20 04:02:37;;;;;;;;;;;;;;;;;;;;;
2022/07/20 04:05:27;;;;;;;4.57;3.25;;;20.40;99.90;;;;;;4981387;28;20054;-92
2022/07/20 04:07:53;;;;;;;6.70;3.42;;;20.30;99.90;;;;;;4965669;28;20133;-87
2022/07/20 04:10:19;;;;;;;4.55;3.13;;;20.30;99.90;;;;;;4970190;28;20090;-87
2022/07/20 04:12:44;;;;;;;5.60;3.40;;;20.30;99.90;;;;;;4930279;28;20042;-87
2022/07/20 04:15:10;;;;;;;4.25;3.60;;;20.30;99.90;;;;;;4958246;28;20120;-89
2022/07/20 04:17:39;;;;;;;4.95;3.35;;;20.30;99.90;;;;;;4953424;28;20073;-86
2022/07/20 04:20:05;;;;;;;7.13;3.58;;;20.30;99.90;;;;;;4971185;28;20046;-89
2022/07/20 04:22:31;;;;;;;4.30;3.67;;;20.30;99.90;;;;;;4951114;28;20520;-89
2022/07/20 04:24:57;;;;;;;6.32;3.63;;;20.30;99.90;;;;;;4983549;28;20026;-85
2022/07/20 04:27:23;;;;;;;5.60;3.67;;;20.30;99.90;;;;;;4976403;28;20113;-85
2022/07/20 04:29:49;;;;;;;5.32;3.58;;;20.30;99.90;;;;;;4968676;28;20046;-86
2022/07/20 04:32:17;;;;;;;4.55;3.22;;;20.30;99.90;;;;;;4973474;28;20057;-88
2022/07/20 04:34:44;;;;;;;4.13;3.13;;;20.30;99.90;;;;;;4985101;28;20132;-92
2022/07/20 04:37:13;;;;;;;6.35;3.75;;;20.40;99.90;;;;;;4969621;28;20100;-91
2022/07/20 04:39:41;;;;;;;4.93;3.53;;;20.40;99.90;;;;;;4976281;28;20057;-88
2022/07/20 04:42:06;;;;;;;4.72;3.55;;;20.40;99.90;;;;;;4959894;28;20034;-89
2022/07/20 04:44:32;;;;;;;5.45;3.67;;;20.50;99.90;;;;;;4967212;28;20073;-89
2022/07/20 04:46:58;;;;;;;4.93;3.50;;;20.50;99.90;;;;;;4970301;28;20112;-89
2022/07/20 04:49:24;;;;;;;6.80;3.60;;;20.50;99.90;;;;;;4929922;28;20043;-90
2022/07/20 04:51:49;;;;;;;5.20;3.38;;;20.50;99.90;;;;;;4952407;28;20050;-85
2022/07/20 04:54:18;;;;;;;4.50;3.47;;;20.60;99.90;;;;;;4949584;28;20436;-87
2022/07/20 04:56:49;;;;;;;4.30;3.10;;;20.50;99.90;;;;;;4956810;28;20051;-88
2022/07/20 04:59:15;;;;;;;5.20;3.75;;;20.50;99.90;;;;;;4950547;28;22537;-83
2022/07/20 05:01:41;;;;;;;5.07;3.70;;;20.70;99.90;;;;;;4937574;28;20050;-87
2022/07/20 05:04:07;;;;;;;4.65;2.97;;;20.60;99.90;;;;;;4949696;28;20061;-86
2022/07/20 05:06:33;;;;;;;6.13;3.85;;;20.70;99.90;;;;;;4956362;28;20050;-87
2022/07/20 05:08:59;;;;;;;5.40;3.53;;;20.50;99.90;;;;;;4945388;28;20604;-86
2022/07/20 05:11:26;;;;;;;5.43;3.70;;;20.80;99.90;;;;;;4963422;28;20054;-85
2022/07/20 05:13:53;;;;;;;6.60;3.40;;;20.80;99.90;;;;;;4956351;28;20053;-87
2022/07/20 05:16:19;;;;;;;5.60;3.63;;;20.90;99.90;;;;;;4956433;28;20046;-87
2022/07/20 05:18:45;;;;;;;5.13;3.83;;;20.90;99.90;;;;;;4962107;28;20118;-87
2022/07/20 05:21:11;;;;;;;6.03;3.28;;;21.00;99.90;;;;;;4950702;28;20062;-85
2022/07/20 05:23:37;;;;;;;5.30;3.80;;;21.00;99.90;;;;;;4952846;28;20049;-86
2022/07/20 05:26:03;;;;;;;6.50;3.78;;;21.10;99.90;;;;;;4952716;28;20180;-84
2022/07/20 05:28:29;;;;;;;6.57;3.72;;;21.20;99.90;;;;;;4957585;28;20053;-86
2022/07/20 05:30:55;;;;;;;6.68;4.50;;;21.20;99.90;;;;;;4941454;28;20065;-85
2022/07/20 05:33:21;;;;;;;5.63;4.15;;;20.80;99.90;;;;;;4954892;28;20046;-87
2022/07/20 05:35:49;;;;;;;8.35;4.22;;;21.60;99.90;;;;;;4954767;28;20390;-87
2022/07/20 05:38:36;;;;;;;7.90;4.18;;;21.60;99.90;;;;;;4948497;28;20494;-89
2022/07/20 05:41:09;;;;;;;5.03;4.10;;;21.70;99.90;;;;;;4961342;28;20058;-90
2022/07/20 05:44:08;;;;;;;;;;;;;;;;;;;;;
2022/07/20 05:46:53;;;;;;;11.65;7.55;;;22.00;99.90;;;;;;4981935;28;20054;-90
2022/07/20 05:49:34;;;;;;;13.63;8.45;;;22.20;99.90;;;;;;4959222;28;20470;-89
2022/07/20 05:52:05;;;;;;;10.98;9.20;;;22.90;99.90;;;;;;4958088;28;20084;-90
2022/07/20 05:54:50;;;;;;;18.63;10.63;;;22.60;99.90;;;;;;4945500;28;20054;-89
2022/07/20 05:57:21;;;;;;;15.80;10.52;;;22.80;99.90;;;;;;4946716;28;20141;-86
2022/07/20 05:59:49;;;;;;;15.77;10.30;;;22.90;99.90;;;;;;4962334;28;20105;-88
2022/07/20 06:02:16;;;;;;;19.38;11.80;;;23.00;99.90;;;;;;4951778;28;20548;-89
2022/07/20 06:07:43;;;;;;;15.65;11.45;;;23.10;99.90;;;;;;4962070;28;20053;-85
2022/07/20 06:10:10;;;;;;;19.48;11.40;;;23.20;99.90;;;;;;4956221;28;20076;-87
2022/07/20 06:12:46;;;;;;;17.73;12.25;;;23.30;99.90;;;;;;4972974;28;20054;-88
2022/07/20 06:15:27;;;;;;;;;;;;;;;;;;;;;
2022/07/20 06:17:58;;;;;;;19.70;12.57;;;23.50;99.90;;;;;;4968848;28;20084;-91
2022/07/20 06:20:26;;;;;;;18.02;12.43;;;23.50;99.90;;;;;;4957719;28;20180;-88
2022/07/20 06:22:58;;;;;;;17.27;12.15;;;23.60;99.90;;;;;;4968717;28;20081;-88
2022/07/20 06:25:24;;;;;;;20.58;12.07;;;23.70;99.90;;;;;;4948290;28;20046;-85
2022/07/20 06:27:51;;;;;;;16.92;12.73;;;23.80;99.90;;;;;;4953680;28;20177;-87
2022/07/20 06:30:19;;;;;;;21.13;13.05;;;23.80;99.90;;;;;;4948892;28;20054;-86
2022/07/20 06:32:45;;;;;;;17.65;13.07;;;23.90;99.90;;;;;;4984170;28;20089;-87
2022/07/20 06:35:11;;;;;;;20.55;13.15;;;23.90;99.90;;;;;;4967528;28;20477;-86
2022/07/20 06:37:40;;;;;;;20.75;13.18;;;24.00;99.90;;;;;;4969247;28;20046;-87
2022/07/20 06:40:07;;;;;;;20.73;13.93;;;24.00;99.90;;;;;;4969080;28;20050;-86
2022/07/20 06:42:33;;;;;;;18.98;13.55;;;24.10;99.90;;;;;;4951164;28;20066;-87
2022/07/20 06:45:07;;;;;;;18.65;14.23;;;24.10;99.90;;;;;;4952029;28;20058;-88
2022/07/20 06:47:34;;;;;;;20.80;14.30;;;24.20;99.90;;;;;;4932449;28;20523;-86
2022/07/20 06:50:08;;;;;;;21.42;14.15;;;24.30;99.90;;;;;;4948743;28;20055;-88
2022/07/20 06:52:39;;;;;;;21.13;13.73;;;24.40;99.90;;;;;;4970564;28;20531;-86
2022/07/20 06:55:06;;;;;;;22.23;14.85;;;24.40;99.90;;;;;;4967168;28;20762;-86
2022/07/20 06:57:32;;;;;;;25.30;14.95;;;24.40;99.90;;;;;;4965897;28;20108;-86
2022/07/20 06:59:58;;;;;;;20.10;14.27;;;24.40;99.90;;;;;;4949193;28;20113;-85
2022/07/20 07:02:24;;;;;;;23.15;14.50;;;24.50;99.90;;;;;;4944430;28;20042;-87
2022/07/20 07:04:49;;;;;;;22.35;14.73;;;24.60;99.90;;;;;;4966735;28;20050;-86
2022/07/20 07:07:18;;;;;;;22.35;14.43;;;24.70;99.90;;;;;;4952614;28;20053;-86
2022/07/20 07:09:47;;;;;;;22.30;14.90;;;24.80;99.90;;;;;;4951617;28;20077;-87
2022/07/20 07:12:13;;;;;;;20.45;15.18;;;24.90;99.90;;;;;;4949489;28;20053;-87
2022/07/20 07:14:41;;;;;;;18.67;14.32;;;25.00;99.90;;;;;;4965148;28;20042;-86
2022/07/20 07:17:07;;;;;;;21.67;15.18;;;25.20;99.90;;;;;;4968434;28;20153;-86
2022/07/20 07:19:33;;;;;;;19.73;15.20;;;25.30;99.90;;;;;;4958150;28;20042;-87
2022/07/20 07:21:59;;;;;;;20.67;14.52;;;25.40;99.90;;;;;;4959775;28;20050;-87
2022/07/20 07:24:30;;;;;;;24.85;16.15;;;25.50;99.90;;;;;;4945338;28;20042;-86
2022/07/20 07:26:56;;;;;;;24.77;15.02;;;25.60;99.90;;;;;;4968298;28;20038;-87
2022/07/20 07:29:22;;;;;;;23.90;15.38;;;25.60;99.90;;;;;;4946450;28;20050;-88
2022/07/20 07:31:51;;;;;;;22.52;14.80;;;25.70;99.90;;;;;;4956552;28;20042;-89
2022/07/20 07:34:20;;;;;;;21.88;14.82;;;25.90;99.90;;;;;;4946580;28;20073;-87
2022/07/20 07:36:46;;;;;;;23.15;15.07;;;25.80;99.90;;;;;;4947378;28;20089;-87
2022/07/20 07:39:12;;;;;;;24.95;16.10;;;25.90;99.90;;;;;;4968907;28;20060;-87
2022/07/20 07:41:40;;;;;;;20.02;14.57;;;26.00;99.90;;;;;;4966462;28;20046;-87
2022/07/20 07:44:09;;;;;;;19.33;15.13;;;26.00;99.90;;;;;;4953368;28;20064;-86
2022/07/20 07:46:35;;;;;;;21.65;15.40;;;26.10;99.90;;;;;;4940565;28;20057;-88
2022/07/20 07:49:15;;;;;;;;;;;;;;;;;;;;;
2022/07/20 07:52:19;;;;;;;20.63;15.18;;;26.30;99.90;;;;;;4974968;28;20053;-89
2022/07/20 07:55:11;;;;;;;22.33;15.82;;;26.30;99.90;;;;;;4965353;28;20046;-89
2022/07/20 07:57:37;;;;;;;24.02;15.63;;;26.30;99.90;;;;;;4969903;28;20038;-89
2022/07/20 08:00:06;;;;;;;23.65;14.82;;;26.40;99.90;;;;;;4955124;28;20056;-88
2022/07/20 08:02:42;;;;;;;17.38;14.80;;;26.50;99.90;;;;;;4953328;28;20052;-89
2022/07/20 08:05:11;;;;;;;23.98;15.63;;;26.60;99.90;;;;;;4972825;28;20046;-88
2022/07/20 08:07:39;;;;;;;23.02;16.67;;;26.70;99.90;;;;;;4969790;28;20125;-86
2022/07/20 08:10:07;;;;;;;19.60;15.40;;;26.80;99.90;;;;;;4954957;28;20054;-86
2022/07/20 08:12:34;;;;;;;22.73;15.93;;;26.60;99.90;;;;;;4956229;28;20045;-85
2022/07/20 08:15:00;;;;;;;19.08;15.65;;;27.20;99.90;;;;;;4957239;28;20394;-84
2022/07/20 08:17:26;;;;;;;23.95;16.45;;;26.50;99.90;;;;;;4964816;28;20058;-87
2022/07/20 08:20:06;;;;;;;19.75;15.15;;;26.50;99.90;;;;;;4970337;28;20109;-91
2022/07/20 08:22:37;;;;;;;21.27;15.07;;;26.50;99.90;;;;;;4972364;28;20159;-90
2022/07/20 08:28:40;;;;;;;18.83;12.93;;;26.30;99.90;;;;;;4960008;28;20057;-90
2022/07/20 08:31:43;;;;;;;21.98;12.32;;;26.20;99.90;;;;;;4955885;28;20132;-88
2022/07/20 08:34:43;;;;;;;17.33;10.68;;;26.20;99.90;;;;;;4930918;28;20046;-89
2022/07/20 08:37:35;;;;;;;19.23;10.05;;;26.50;99.90;;;;;;4958059;28;20054;-88
2022/07/20 08:43:14;;;;;;;16.13;9.05;;;26.30;99.90;;;;;;4960187;28;20403;-90
2022/07/20 08:46:10;;;;;;;;;;;;;;;;;;;;;
2022/07/20 08:49:18;;;;;;;;;;;;;;;;;;;;;
2022/07/20 08:55:13;;;;;;;13.63;8.32;;;26.40;99.90;;;;;;4952656;28;20159;-90
2022/07/20 08:57:48;;;;;;;17.65;8.90;;;26.50;99.90;;;;;;4963752;28;20056;-90
2022/07/20 09:00:20;;;;;;;14.43;8.40;;;26.50;99.90;;;;;;4946763;28;20046;-87
2022/07/20 09:03:32;;;;;;;12.55;7.85;;;26.50;99.90;;;;;;4953954;28;20073;-90
2022/07/20 09:06:36;;;;;;;16.10;9.00;;;26.60;99.90;;;;;;4893443;28;20100;-90
2022/07/20 09:09:11;;;;;;;14.40;7.90;;;26.70;99.90;;;;;;4958303;28;20559;-89
2022/07/20 09:11:39;;;;;;;15.43;7.95;;;27.10;99.90;;;;;;4959330;28;20129;-89
2022/07/20 09:14:08;;;;;;;15.10;7.40;;;27.20;99.90;;;;;;4956016;28;20108;-87
2022/07/20 09:16:48;;;;;;;13.05;7.95;;;27.40;99.90;;;;;;4954343;28;20603;-84
2022/07/20 09:19:17;;;;;;;11.52;7.93;;;27.60;99.90;;;;;;4967808;28;20126;-84
2022/07/20 09:21:43;;;;;;;12.25;7.72;;;27.60;99.90;;;;;;4970853;28;20104;-86
2022/07/20 09:24:20;;;;;;;13.70;8.05;;;27.40;99.90;;;;;;4954432;28;20512;-85
2022/07/20 09:27:04;;;;;;;15.70;8.00;;;27.60;99.90;;;;;;4953027;28;20137;-86
2022/07/20 09:29:38;;;;;;;16.65;7.22;;;27.60;99.90;;;;;;4961633;28;20050;-85
2022/07/20 09:32:04;;;;;;;13.77;7.78;;;27.70;99.90;;;;;;4961886;28;20081;-86
2022/07/20 09:34:33;;;;;;;13.20;7.70;;;27.50;99.90;;;;;;4958303;28;20505;-86
2022/07/20 09:36:59;;;;;;;12.48;6.85;;;27.50;99.90;;;;;;4966292;28;20932;-84
2022/07/20 09:39:25;;;;;;;11.95;7.20;;;27.60;99.90;;;;;;4956053;28;20140;-85
2022/07/20 09:41:52;;;;;;;11.55;6.63;;;27.70;99.90;;;;;;4948739;28;20447;-85
2022/07/20 09:44:24;;;;;;;12.95;6.55;;;27.90;99.90;;;;;;4962444;28;20137;-83
2022/07/20 09:46:50;;;;;;;10.18;6.47;;;27.70;99.90;;;;;;4951695;28;20057;-82
2022/07/20 09:49:16;;;;;;;10.90;6.07;;;27.60;99.90;;;;;;4949972;28;20408;-84
2022/07/20 09:51:44;;;;;;;11.77;6.95;;;27.50;99.90;;;;;;4951510;28;20054;-83
2022/07/20 09:54:14;;;;;;;12.45;6.13;;;27.50;99.90;;;;;;4965562;28;20073;-84
2022/07/20 09:56:42;;;;;;;14.68;7.05;;;27.50;99.90;;;;;;4966929;28;20489;-84
2022/07/20 09:59:13;;;;;;;12.40;6.15;;;27.60;99.90;;;;;;4946246;28;20505;-83
2022/07/20 10:01:45;;;;;;;12.65;6.45;;;27.60;99.90;;;;;;4951616;28;20039;-84
2022/07/20 10:04:12;;;;;;;11.85;6.20;;;27.60;99.90;;;;;;4951729;28;20046;-86
2022/07/20 10:06:43;;;;;;;11.55;6.43;;;27.50;99.90;;;;;;4953185;28;20053;-85
2022/07/20 10:09:14;;;;;;;12.18;6.35;;;27.60;99.90;;;;;;4946214;28;20093;-82
2022/07/20 10:11:41;;;;;;;11.43;6.60;;;27.60;99.90;;;;;;4952780;28;20401;-83
2022/07/20 10:14:07;;;;;;;13.82;6.55;;;27.70;99.90;;;;;;4949428;28;20047;-82
2022/07/20 10:16:49;;;;;;;13.30;6.57;;;27.90;99.90;;;;;;4953234;28;20523;-84
2022/07/20 10:19:15;;;;;;;11.25;6.07;;;27.90;99.90;;;;;;4949244;28;20141;-82
2022/07/20 10:21:49;;;;;;;10.82;5.80;;;27.90;99.90;;;;;;4967537;28;20050;-83
2022/07/20 10:24:30;;;;;;;11.82;6.55;;;27.90;99.90;;;;;;4953153;28;20054;-83
2022/07/20 10:27:05;;;;;;;10.75;5.60;;;28.00;99.80;;;;;;4969721;28;20049;-82
2022/07/20 10:29:43;;;;;;;11.57;6.03;;;28.20;99.50;;;;;;4972741;28;20441;-83
2022/07/20 10:32:20;;;;;;;10.98;5.93;;;28.40;98.80;;;;;;4972656;28;20046;-83
2022/07/20 10:34:52;;;;;;;10.52;5.53;;;28.50;98.40;;;;;;4956494;28;20820;-83
2022/07/20 10:37:23;;;;;;;9.15;5.75;;;28.40;98.30;;;;;;4958016;28;20525;-83
2022/07/20 10:40:09;;;;;;;9.95;5.80;;;28.30;98.10;;;;;;4956413;28;20485;-83
2022/07/20 10:42:35;;;;;;;;;;;28.50;98.20;;;;;;4958225;28;20042;-82
2022/07/20 10:45:16;;;;;;;;;;;28.50;97.60;;;;;;4971884;28;19929;-85
2022/07/20 10:47:48;;;;;;;9.98;5.28;;;28.60;97.60;;;;;;4957241;28;19973;-83
2022/07/20 10:50:54;;;;;;;9.60;4.80;;;28.80;97.70;;;;;;4949918;28;20073;-83
2022/07/20 10:53:26;;;;;;;10.13;4.72;;;28.50;96.60;;;;;;4908556;28;1163262;-83
2022/07/20 10:55:55;;;;;;;8.90;5.07;;;29.00;96.90;;;;;;4950744;28;20573;-83
2022/07/20 10:58:26;;;;;;;10.75;4.60;;;29.00;96.90;;;;;;4958190;28;20054;-83
2022/07/20 11:00:52;;;;;;;11.85;5.07;;;29.00;96.90;;;;;;4949063;28;20134;-84
2022/07/20 11:03:22;;;;;;;8.85;5.25;;;28.80;96.80;;;;;;4949905;28;20129;-83
2022/07/20 11:06:00;;;;;;;11.25;5.18;;;28.80;96.70;;;;;;4951381;28;20050;-84
2022/07/20 11:08:26;;;;;;;8.05;5.55;;;28.90;96.90;;;;;;4952399;28;20259;-83
2022/07/20 11:10:52;;;;;;;8.85;4.72;;;28.70;96.80;;;;;;4952944;28;20595;-83
2022/07/20 11:13:18;;;;;;;10.18;4.95;;;28.80;96.70;;;;;;4951095;28;20038;-84
2022/07/20 11:15:53;;;;;;;9.52;4.85;;;28.70;96.70;;;;;;4941589;28;20536;-83
2022/07/20 11:18:25;;;;;;;10.02;4.68;;;28.70;96.60;;;;;;4952615;28;20132;-82
2022/07/20 11:21:08;;;;;;;9.13;4.53;;;28.60;96.80;;;;;;4950494;28;20050;-82
2022/07/20 11:23:43;;;;;;;8.77;4.43;;;28.60;97.10;;;;;;4958438;28;20248;-81
2022/07/20 11:26:13;;;;;;;10.63;4.90;;;28.70;96.80;;;;;;4950669;28;20050;-82
2022/07/20 11:28:43;;;;;;;8.48;4.85;;;28.90;97.00;;;;;;4965807;28;20046;-82
2022/07/20 11:31:09;;;;;;;10.00;5.35;;;29.00;97.20;;;;;;4982856;28;20062;-82
2022/07/20 11:33:39;;;;;;;14.07;5.55;;;29.00;97.30;;;;;;4942973;28;20046;-81
2022/07/20 11:36:13;;;;;;;11.18;5.53;;;28.90;96.40;;;;;;4947447;28;20102;-84
2022/07/20 11:38:43;;;;;;;11.07;5.63;;;28.90;96.40;;;;;;4961900;28;20495;-82
2022/07/20 11:41:15;;;;;;;9.02;5.47;;;29.00;95.70;;;;;;4966112;28;20516;-82
2022/07/20 11:43:41;;;;;;;11.90;5.38;;;28.80;95.50;;;;;;4958433;28;20088;-82
2022/07/20 11:46:08;;;;;;;9.30;5.65;;;28.80;95.90;;;;;;4949191;28;22402;-82
2022/07/20 11:48:34;;;;;;;9.55;5.97;;;28.90;96.00;;;;;;4968605;28;20042;-84
2022/07/20 11:51:00;;;;;;;10.77;5.72;;;29.00;96.20;;;;;;4930686;28;20053;-81
2022/07/20 11:53:32;;;;;;;9.82;5.70;;;29.30;96.20;;;;;;4965254;28;20177;-81
2022/07/20 11:55:59;;;;;;;10.32;6.40;;;29.50;96.00;;;;;;4972208;28;20477;-82
2022/07/20 11:58:28;;;;;;;10.55;5.65;;;29.60;95.80;;;;;;4956371;28;20092;-81
2022/07/20 12:00:54;;;;;;;10.30;5.80;;;29.70;95.50;;;;;;4971873;28;20054;-81
2022/07/20 12:03:37;;;;;;;9.32;5.50;;;29.80;95.30;;;;;;4972216;28;20997;-81
2022/07/20 12:06:08;;;;;;;12.88;5.90;;;29.80;94.60;;;;;;4956392;28;20137;-82
2022/07/20 12:08:35;;;;;;;11.15;5.88;;;29.80;94.70;;;;;;4972921;28;20054;-80
2022/07/20 12:11:01;;;;;;;10.48;6.22;;;29.60;94.70;;;;;;4956952;28;20058;-82
2022/07/20 12:13:27;;;;;;;9.95;5.60;;;29.70;94.60;;;;;;4944901;28;20042;-82
2022/07/20 12:16:01;;;;;;;9.82;4.93;;;29.70;94.40;;;;;;4965356;28;20042;-82
2022/07/20 12:18:52;;;;;;;9.18;4.93;;;29.70;94.40;;;;;;4951124;28;20062;-81
2022/07/20 12:21:27;;;;;;;9.55;5.28;;;29.70;94.60;;;;;;4982925;28;20058;-81
2022/07/20 12:23:55;;;;;;;9.07;4.88;;;29.50;94.40;;;;;;4956877;28;20121;-82
2022/07/20 12:26:24;;;;;;;10.02;5.18;;;29.20;94.70;;;;;;4949883;28;20061;-80
2022/07/20 12:28:50;;;;;;;10.85;4.50;;;29.20;94.60;;;;;;4966002;28;20077;-84
2022/07/20 12:31:19;;;;;;;8.10;5.07;;;29.30;94.40;;;;;;4964665;28;20461;-81
2022/07/20 12:34:13;;;;;;;11.13;4.90;;;29.50;94.00;;;;;;4952147;28;20394;-82
2022/07/20 12:36:42;;;;;;;8.13;4.03;;;29.70;93.90;;;;;;4965862;28;20465;-82
2022/07/20 12:39:12;;;;;;;9.65;3.83;;;29.50;93.20;;;;;;4950249;28;20794;-83
2022/07/20 12:41:39;;;;;;;6.85;3.67;;;29.40;93.00;;;;;;4950192;28;20057;-81
2022/07/20 12:44:28;;;;;;;8.68;3.60;;;29.30;93.10;;;;;;4962665;28;20110;-79
2022/07/20 12:46:55;;;;;;;6.30;3.05;;;29.50;92.40;;;;;;4948787;28;20042;-80
2022/07/20 12:49:25;;;;;;;4.63;2.67;;;29.40;92.10;;;;;;4941641;28;20053;-79
2022/07/20 12:51:52;;;;;;;6.97;2.88;;;29.70;92.10;;;;;;4967632;28;20745;-81
2022/07/20 12:54:22;;;;;;;7.15;2.90;;;29.90;91.80;;;;;;4945588;28;20085;-81
2022/07/20 12:56:49;;;;;;;7.72;3.13;;;30.10;91.60;;;;;;4926519;28;20576;-83
2022/07/20 12:59:16;;;;;;;8.05;3.50;;;30.20;91.50;;;;;;4960525;28;20054;-82
2022/07/20 13:01:43;;;;;;;6.20;3.10;;;30.40;91.50;;;;;;4950990;28;20516;-82
2022/07/20 13:04:12;;;;;;;5.97;2.90;;;30.40;91.30;;;;;;4946478;28;20079;-90
2022/07/20 13:06:37;;;;;;;6.13;3.55;;;30.50;91.10;;;;;;4949968;28;20054;-82
2022/07/20 13:09:04;;;;;;;6.90;3.30;;;30.50;90.80;;;;;;4949381;28;20042;-83
2022/07/20 13:11:30;;;;;;;6.60;3.00;;;30.50;90.80;;;;;;4946784;28;20068;-82
2022/07/20 13:13:56;;;;;;;6.43;2.95;;;30.40;90.40;;;;;;4942504;28;20172;-84
2022/07/20 13:16:22;;;;;;;4.55;2.78;;;30.60;90.20;;;;;;4966586;28;20057;-82
2022/07/20 13:18:48;;;;;;;5.82;2.80;;;30.30;88.20;;;;;;4954760;28;20046;-82